sensor_id;sensor_type;location;lat;lon;timestamp;P1;durP1;ratioP1;P2;durP2;ratioP2
13897;SDS011;7019;50.766;4.474;2024-01-15T00:00:37;29.00;;;13.57;;
13897;SDS011;7019;50.766;4.474;2024-01-15T00:03:05;25.77;;;13.03;;
13897;SDS011;7019;50.766;4.474;2024-01-15T00:05:32;31.73;;;13.40;;
13897;SDS011;7019;50.766;4.474;2024-01-15T00:08:01;32.30;;;12.70;;
13897;SDS011;7019;50.766;4.474;2024-01-15T00:10:28;29.50;;;14.30;;
13897;SDS011;7019;50.766;4.474;2024-01-15T00:12:56;25.97;;;11.43;;
13897;SDS011;7019;50.766;4.474;2024-01-15T00:15:23;29.10;;;13.13;;
13897;SDS011;7019;50.766;4.474;2024-01-15T00:17:53;23.83;;;12.13;;
13897;SDS011;7019;50.766;4.474;2024-01-15T00:20:21;23.30;;;11.27;;
13897;SDS011;7019;50.766;4.474;2024-01-15T00:22:48;23.77;;;12.53;;
13897;SDS011;7019;50.766;4.474;2024-01-15T00:25:17;27.70;;;11.37;;
13897;SDS011;7019;50.766;4.474;2024-01-15T00:27:44;21.73;;;10.27;;
13897;SDS011;7019;50.766;4.474;2024-01-15T00:30:12;20.30;;;10.87;;
13897;SDS011;7019;50.766;4.474;2024-01-15T00:32:39;26.47;;;11.47;;
13897;SDS011;7019;50.766;4.474;2024-01-15T00:35:07;31.03;;;12.30;;
13897;SDS011;7019;50.766;4.474;2024-01-15T00:37:34;23.83;;;11.53;;
13897;SDS011;7019;50.766;4.474;2024-01-15T00:40:02;20.70;;;10.90;;
13897;SDS011;7019;50.766;4.474;2024-01-15T00:42:31;18.27;;;10.13;;
13897;SDS011;7019;50.766;4.474;2024-01-15T00:44:58;21.30;;;11.67;;
13897;SDS011;7019;50.766;4.474;2024-01-15T00:47:25;25.47;;;10.67;;
13897;SDS011;7019;50.766;4.474;2024-01-15T00:49:53;19.90;;;9.40;;
13897;SDS011;7019;50.766;4.474;2024-01-15T00:52:20;19.07;;;9.40;;
13897;SDS011;7019;50.766;4.474;2024-01-15T00:54:47;18.60;;;9.57;;
13897;SDS011;7019;50.766;4.474;2024-01-15T00:57:14;22.07;;;10.70;;
13897;SDS011;7019;50.766;4.474;2024-01-15T00:59:45;19.97;;;8.50;;
13897;SDS011;7019;50.766;4.474;2024-01-15T01:02:13;19.60;;;9.37;;
13897;SDS011;7019;50.766;4.474;2024-01-15T01:04:40;18.03;;;9.67;;
13897;SDS011;7019;50.766;4.474;2024-01-15T01:07:07;18.57;;;8.83;;
13897;SDS011;7019;50.766;4.474;2024-01-15T01:09:35;20.53;;;9.47;;
13897;SDS011;7019;50.766;4.474;2024-01-15T01:12:02;19.07;;;9.87;;
13897;SDS011;7019;50.766;4.474;2024-01-15T01:14:29;18.20;;;8.97;;
13897;SDS011;7019;50.766;4.474;2024-01-15T01:16:58;15.80;;;8.97;;
13897;SDS011;7019;50.766;4.474;2024-01-15T01:19:25;18.03;;;9.87;;
13897;SDS011;7019;50.766;4.474;2024-01-15T01:21:52;20.10;;;9.97;;
13897;SDS011;7019;50.766;4.474;2024-01-15T01:24:19;19.80;;;9.50;;
13897;SDS011;7019;50.766;4.474;2024-01-15T01:26:47;19.87;;;10.57;;
13897;SDS011;7019;50.766;4.474;2024-01-15T01:29:14;22.37;;;10.13;;
13897;SDS011;7019;50.766;4.474;2024-01-15T01:31:44;19.47;;;9.80;;
13897;SDS011;7019;50.766;4.474;2024-01-15T01:34:14;20.37;;;9.67;;
13897;SDS011;7019;50.766;4.474;2024-01-15T01:36:41;21.40;;;9.73;;
13897;SDS011;7019;50.766;4.474;2024-01-15T01:39:09;20.50;;;10.17;;
13897;SDS011;7019;50.766;4.474;2024-01-15T01:41:37;20.90;;;10.03;;
13897;SDS011;7019;50.766;4.474;2024-01-15T01:44:04;19.20;;;9.70;;
13897;SDS011;7019;50.766;4.474;2024-01-15T01:46:32;19.97;;;11.23;;
13897;SDS011;7019;50.766;4.474;2024-01-15T01:49:00;20.00;;;9.87;;
13897;SDS011;7019;50.766;4.474;2024-01-15T01:51:31;19.47;;;10.00;;
13897;SDS011;7019;50.766;4.474;2024-01-15T01:54:00;21.03;;;10.03;;
13897;SDS011;7019;50.766;4.474;2024-01-15T01:56:27;17.47;;;9.23;;
13897;SDS011;7019;50.766;4.474;2024-01-15T01:58:54;18.33;;;9.70;;
13897;SDS011;7019;50.766;4.474;2024-01-15T02:01:22;21.93;;;10.37;;
13897;SDS011;7019;50.766;4.474;2024-01-15T02:03:49;22.83;;;11.10;;
13897;SDS011;7019;50.766;4.474;2024-01-15T02:06:16;19.53;;;9.90;;
13897;SDS011;7019;50.766;4.474;2024-01-15T02:08:45;16.80;;;9.00;;
13897;SDS011;7019;50.766;4.474;2024-01-15T02:11:12;18.57;;;8.93;;
13897;SDS011;7019;50.766;4.474;2024-01-15T02:13:39;14.57;;;7.77;;
13897;SDS011;7019;50.766;4.474;2024-01-15T02:16:06;16.53;;;8.43;;
13897;SDS011;7019;50.766;4.474;2024-01-15T02:18:39;15.73;;;8.50;;
13897;SDS011;7019;50.766;4.474;2024-01-15T02:21:07;15.87;;;7.73;;
13897;SDS011;7019;50.766;4.474;2024-01-15T02:23:42;11.97;;;6.73;;
13897;SDS011;7019;50.766;4.474;2024-01-15T02:26:09;13.20;;;7.53;;
13897;SDS011;7019;50.766;4.474;2024-01-15T02:28:37;13.63;;;7.17;;
13897;SDS011;7019;50.766;4.474;2024-01-15T02:31:04;15.90;;;7.13;;
13897;SDS011;7019;50.766;4.474;2024-01-15T02:33:31;11.80;;;6.87;;
13897;SDS011;7019;50.766;4.474;2024-01-15T02:35:59;18.17;;;7.10;;
13897;SDS011;7019;50.766;4.474;2024-01-15T02:38:26;14.20;;;6.30;;
13897;SDS011;7019;50.766;4.474;2024-01-15T02:40:54;11.23;;;6.33;;
13897;SDS011;7019;50.766;4.474;2024-01-15T02:43:22;12.23;;;6.37;;
13897;SDS011;7019;50.766;4.474;2024-01-15T02:45:49;12.07;;;7.17;;
13897;SDS011;7019;50.766;4.474;2024-01-15T02:48:16;15.30;;;6.33;;
13897;SDS011;7019;50.766;4.474;2024-01-15T02:50:43;10.77;;;6.10;;
13897;SDS011;7019;50.766;4.474;2024-01-15T02:53:11;15.83;;;7.13;;
13897;SDS011;7019;50.766;4.474;2024-01-15T02:55:38;12.07;;;7.47;;
13897;SDS011;7019;50.766;4.474;2024-01-15T02:58:06;15.83;;;6.47;;
13897;SDS011;7019;50.766;4.474;2024-01-15T03:00:34;12.70;;;7.07;;
13897;SDS011;7019;50.766;4.474;2024-01-15T03:03:01;14.40;;;7.80;;
13897;SDS011;7019;50.766;4.474;2024-01-15T03:05:28;10.53;;;6.93;;
13897;SDS011;7019;50.766;4.474;2024-01-15T03:07:56;12.30;;;7.53;;
13897;SDS011;7019;50.766;4.474;2024-01-15T03:10:23;13.00;;;7.73;;
13897;SDS011;7019;50.766;4.474;2024-01-15T03:12:50;15.57;;;7.73;;
13897;SDS011;7019;50.766;4.474;2024-01-15T03:15:19;17.20;;;8.70;;
13897;SDS011;7019;50.766;4.474;2024-01-15T03:17:46;14.87;;;9.33;;
13897;SDS011;7019;50.766;4.474;2024-01-15T03:20:13;17.93;;;9.73;;
13897;SDS011;7019;50.766;4.474;2024-01-15T03:22:41;17.57;;;8.30;;
13897;SDS011;7019;50.766;4.474;2024-01-15T03:25:08;19.17;;;10.70;;
13897;SDS011;7019;50.766;4.474;2024-01-15T03:27:35;20.33;;;11.30;;
13897;SDS011;7019;50.766;4.474;2024-01-15T03:30:03;20.47;;;10.70;;
13897;SDS011;7019;50.766;4.474;2024-01-15T03:32:31;18.97;;;10.13;;
13897;SDS011;7019;50.766;4.474;2024-01-15T03:34:59;20.57;;;10.47;;
13897;SDS011;7019;50.766;4.474;2024-01-15T03:37:26;23.40;;;10.87;;
13897;SDS011;7019;50.766;4.474;2024-01-15T03:39:53;22.60;;;12.17;;
13897;SDS011;7019;50.766;4.474;2024-01-15T03:42:21;24.63;;;11.63;;
13897;SDS011;7019;50.766;4.474;2024-01-15T03:44:48;28.70;;;11.80;;
13897;SDS011;7019;50.766;4.474;2024-01-15T03:47:16;20.33;;;11.77;;
13897;SDS011;7019;50.766;4.474;2024-01-15T03:49:44;23.30;;;11.90;;
13897;SDS011;7019;50.766;4.474;2024-01-15T03:52:11;21.47;;;11.33;;
13897;SDS011;7019;50.766;4.474;2024-01-15T03:54:39;23.07;;;11.97;;
13897;SDS011;7019;50.766;4.474;2024-01-15T03:57:06;23.17;;;12.27;;
13897;SDS011;7019;50.766;4.474;2024-01-15T03:59:33;24.93;;;12.27;;
13897;SDS011;7019;50.766;4.474;2024-01-15T04:02:01;28.23;;;14.10;;
13897;SDS011;7019;50.766;4.474;2024-01-15T04:04:29;26.10;;;13.20;;
13897;SDS011;7019;50.766;4.474;2024-01-15T04:06:57;27.10;;;12.90;;
13897;SDS011;7019;50.766;4.474;2024-01-15T04:09:25;26.00;;;13.23;;
13897;SDS011;7019;50.766;4.474;2024-01-15T04:11:52;25.10;;;13.03;;
13897;SDS011;7019;50.766;4.474;2024-01-15T04:14:19;22.70;;;12.57;;
13897;SDS011;7019;50.766;4.474;2024-01-15T04:16:46;25.50;;;13.27;;
13897;SDS011;7019;50.766;4.474;2024-01-15T04:19:14;28.00;;;14.20;;
13897;SDS011;7019;50.766;4.474;2024-01-15T04:21:41;26.97;;;13.57;;
13897;SDS011;7019;50.766;4.474;2024-01-15T04:24:09;23.87;;;13.53;;
13897;SDS011;7019;50.766;4.474;2024-01-15T04:26:37;24.77;;;12.10;;
13897;SDS011;7019;50.766;4.474;2024-01-15T04:29:04;22.43;;;12.63;;
13897;SDS011;7019;50.766;4.474;2024-01-15T04:31:31;25.30;;;12.13;;
13897;SDS011;7019;50.766;4.474;2024-01-15T04:33:59;21.53;;;11.30;;
13897;SDS011;7019;50.766;4.474;2024-01-15T04:36:26;25.77;;;12.70;;
13897;SDS011;7019;50.766;4.474;2024-01-15T04:38:53;20.47;;;12.20;;
13897;SDS011;7019;50.766;4.474;2024-01-15T04:41:22;23.33;;;12.77;;
13897;SDS011;7019;50.766;4.474;2024-01-15T04:43:49;25.40;;;13.03;;
13897;SDS011;7019;50.766;4.474;2024-01-15T04:46:16;20.80;;;11.90;;
13897;SDS011;7019;50.766;4.474;2024-01-15T04:48:44;20.07;;;11.37;;
13897;SDS011;7019;50.766;4.474;2024-01-15T04:51:11;27.33;;;12.40;;
13897;SDS011;7019;50.766;4.474;2024-01-15T04:53:38;21.33;;;11.03;;
13897;SDS011;7019;50.766;4.474;2024-01-15T04:56:06;19.90;;;10.47;;
13897;SDS011;7019;50.766;4.474;2024-01-15T04:58:34;15.60;;;9.03;;
13897;SDS011;7019;50.766;4.474;2024-01-15T05:01:02;16.90;;;9.77;;
13897;SDS011;7019;50.766;4.474;2024-01-15T05:03:29;16.13;;;9.13;;
13897;SDS011;7019;50.766;4.474;2024-01-15T05:05:56;13.80;;;8.17;;
13897;SDS011;7019;50.766;4.474;2024-01-15T05:08:24;15.30;;;7.70;;
13897;SDS011;7019;50.766;4.474;2024-01-15T05:10:51;18.03;;;8.37;;
13897;SDS011;7019;50.766;4.474;2024-01-15T05:13:18;12.37;;;6.77;;
13897;SDS011;7019;50.766;4.474;2024-01-15T05:15:47;12.50;;;6.30;;
13897;SDS011;7019;50.766;4.474;2024-01-15T05:18:14;12.03;;;7.33;;
13897;SDS011;7019;50.766;4.474;2024-01-15T05:20:41;12.27;;;6.57;;
13897;SDS011;7019;50.766;4.474;2024-01-15T05:23:09;12.37;;;5.53;;
13897;SDS011;7019;50.766;4.474;2024-01-15T05:25:36;10.83;;;6.03;;
13897;SDS011;7019;50.766;4.474;2024-01-15T05:28:04;10.83;;;6.20;;
13897;SDS011;7019;50.766;4.474;2024-01-15T05:30:31;9.13;;;5.33;;
13897;SDS011;7019;50.766;4.474;2024-01-15T05:33:00;8.83;;;5.70;;
13897;SDS011;7019;50.766;4.474;2024-01-15T05:35:28;11.90;;;5.87;;
13897;SDS011;7019;50.766;4.474;2024-01-15T05:37:55;10.03;;;5.97;;
13897;SDS011;7019;50.766;4.474;2024-01-15T05:40:22;12.97;;;6.93;;
13897;SDS011;7019;50.766;4.474;2024-01-15T05:42:49;10.77;;;6.17;;
13897;SDS011;7019;50.766;4.474;2024-01-15T05:45:17;11.10;;;6.23;;
13897;SDS011;7019;50.766;4.474;2024-01-15T05:47:44;10.80;;;5.90;;
13897;SDS011;7019;50.766;4.474;2024-01-15T05:50:12;9.63;;;6.00;;
13897;SDS011;7019;50.766;4.474;2024-01-15T05:52:40;11.07;;;6.70;;
13897;SDS011;7019;50.766;4.474;2024-01-15T05:55:07;11.03;;;6.13;;
13897;SDS011;7019;50.766;4.474;2024-01-15T05:57:35;13.73;;;6.53;;
13897;SDS011;7019;50.766;4.474;2024-01-15T06:00:03;16.63;;;8.40;;
13897;SDS011;7019;50.766;4.474;2024-01-15T06:02:30;14.00;;;7.70;;
13897;SDS011;7019;50.766;4.474;2024-01-15T06:04:57;16.57;;;7.33;;
13897;SDS011;7019;50.766;4.474;2024-01-15T06:07:26;11.97;;;7.27;;
13897;SDS011;7019;50.766;4.474;2024-01-15T06:09:53;9.90;;;6.50;;
13897;SDS011;7019;50.766;4.474;2024-01-15T06:12:22;13.00;;;5.60;;
13897;SDS011;7019;50.766;4.474;2024-01-15T06:14:49;7.83;;;4.70;;
13897;SDS011;7019;50.766;4.474;2024-01-15T06:17:17;7.57;;;2.73;;
13897;SDS011;7019;50.766;4.474;2024-01-15T06:19:44;3.97;;;2.50;;
13897;SDS011;7019;50.766;4.474;2024-01-15T06:22:11;4.53;;;2.87;;
13897;SDS011;7019;50.766;4.474;2024-01-15T06:24:40;7.13;;;2.63;;
13897;SDS011;7019;50.766;4.474;2024-01-15T06:27:08;8.03;;;3.03;;
13897;SDS011;7019;50.766;4.474;2024-01-15T06:29:37;5.93;;;3.20;;
13897;SDS011;7019;50.766;4.474;2024-01-15T06:32:05;5.37;;;3.63;;
13897;SDS011;7019;50.766;4.474;2024-01-15T06:34:32;9.37;;;3.70;;
13897;SDS011;7019;50.766;4.474;2024-01-15T06:36:59;7.90;;;3.97;;
13897;SDS011;7019;50.766;4.474;2024-01-15T06:39:27;7.80;;;4.00;;
13897;SDS011;7019;50.766;4.474;2024-01-15T06:41:56;8.10;;;5.20;;
13897;SDS011;7019;50.766;4.474;2024-01-15T06:44:23;12.40;;;4.80;;
13897;SDS011;7019;50.766;4.474;2024-01-15T06:46:50;10.70;;;5.53;;
13897;SDS011;7019;50.766;4.474;2024-01-15T06:49:22;10.83;;;6.80;;
13897;SDS011;7019;50.766;4.474;2024-01-15T06:51:49;9.30;;;6.53;;
13897;SDS011;7019;50.766;4.474;2024-01-15T06:54:17;8.67;;;5.80;;
13897;SDS011;7019;50.766;4.474;2024-01-15T06:56:44;12.10;;;6.93;;
13897;SDS011;7019;50.766;4.474;2024-01-15T06:59:13;14.70;;;7.23;;
13897;SDS011;7019;50.766;4.474;2024-01-15T07:01:40;13.23;;;7.70;;
13897;SDS011;7019;50.766;4.474;2024-01-15T07:04:09;18.07;;;7.40;;
13897;SDS011;7019;50.766;4.474;2024-01-15T07:06:36;14.40;;;7.97;;
13897;SDS011;7019;50.766;4.474;2024-01-15T07:09:04;14.67;;;8.10;;
13897;SDS011;7019;50.766;4.474;2024-01-15T07:11:31;13.67;;;7.80;;
13897;SDS011;7019;50.766;4.474;2024-01-15T07:13:58;18.37;;;9.03;;
13897;SDS011;7019;50.766;4.474;2024-01-15T07:16:27;13.70;;;8.77;;
13897;SDS011;7019;50.766;4.474;2024-01-15T07:18:54;15.37;;;8.93;;
13897;SDS011;7019;50.766;4.474;2024-01-15T07:21:21;15.63;;;9.17;;
13897;SDS011;7019;50.766;4.474;2024-01-15T07:23:49;16.43;;;8.93;;
13897;SDS011;7019;50.766;4.474;2024-01-15T07:26:16;15.27;;;8.47;;
13897;SDS011;7019;50.766;4.474;2024-01-15T07:28:43;15.87;;;9.43;;
13897;SDS011;7019;50.766;4.474;2024-01-15T07:31:11;14.70;;;8.67;;
13897;SDS011;7019;50.766;4.474;2024-01-15T07:33:39;16.57;;;9.27;;
13897;SDS011;7019;50.766;4.474;2024-01-15T07:36:07;19.27;;;8.63;;
13897;SDS011;7019;50.766;4.474;2024-01-15T07:38:34;14.70;;;9.80;;
13897;SDS011;7019;50.766;4.474;2024-01-15T07:41:02;17.13;;;9.13;;
13897;SDS011;7019;50.766;4.474;2024-01-15T07:43:29;16.47;;;9.47;;
13897;SDS011;7019;50.766;4.474;2024-01-15T07:45:57;17.63;;;9.27;;
13897;SDS011;7019;50.766;4.474;2024-01-15T07:48:24;18.43;;;9.97;;
13897;SDS011;7019;50.766;4.474;2024-01-15T07:50:53;20.27;;;10.43;;
13897;SDS011;7019;50.766;4.474;2024-01-15T07:53:21;15.93;;;9.87;;
13897;SDS011;7019;50.766;4.474;2024-01-15T07:55:48;21.30;;;9.80;;
13897;SDS011;7019;50.766;4.474;2024-01-15T07:58:16;12.93;;;8.80;;
13897;SDS011;7019;50.766;4.474;2024-01-15T08:00:43;22.70;;;9.63;;
13897;SDS011;7019;50.766;4.474;2024-01-15T08:03:11;13.03;;;8.30;;
13897;SDS011;7019;50.766;4.474;2024-01-15T08:05:40;13.80;;;8.30;;
13897;SDS011;7019;50.766;4.474;2024-01-15T08:08:09;12.67;;;8.53;;
13897;SDS011;7019;50.766;4.474;2024-01-15T08:10:36;17.00;;;7.23;;
13897;SDS011;7019;50.766;4.474;2024-01-15T08:13:04;12.03;;;6.93;;
13897;SDS011;7019;50.766;4.474;2024-01-15T08:15:34;13.80;;;6.53;;
13897;SDS011;7019;50.766;4.474;2024-01-15T08:18:02;11.17;;;6.03;;
13897;SDS011;7019;50.766;4.474;2024-01-15T08:20:30;17.43;;;7.33;;
13897;SDS011;7019;50.766;4.474;2024-01-15T08:22:57;14.90;;;5.03;;
13897;SDS011;7019;50.766;4.474;2024-01-15T08:25:26;14.30;;;5.33;;
13897;SDS011;7019;50.766;4.474;2024-01-15T08:27:53;10.73;;;5.83;;
13897;SDS011;7019;50.766;4.474;2024-01-15T08:30:21;9.63;;;5.57;;
13897;SDS011;7019;50.766;4.474;2024-01-15T08:32:51;11.63;;;4.70;;
13897;SDS011;7019;50.766;4.474;2024-01-15T08:35:18;11.73;;;4.20;;
13897;SDS011;7019;50.766;4.474;2024-01-15T08:37:48;11.27;;;3.97;;
13897;SDS011;7019;50.766;4.474;2024-01-15T08:40:15;6.97;;;3.70;;
13897;SDS011;7019;50.766;4.474;2024-01-15T08:42:44;14.30;;;4.83;;
13897;SDS011;7019;50.766;4.474;2024-01-15T08:45:11;9.00;;;3.90;;
13897;SDS011;7019;50.766;4.474;2024-01-15T08:47:39;6.57;;;3.47;;
13897;SDS011;7019;50.766;4.474;2024-01-15T08:50:06;8.17;;;3.33;;
13897;SDS011;7019;50.766;4.474;2024-01-15T08:52:35;5.97;;;3.67;;
13897;SDS011;7019;50.766;4.474;2024-01-15T08:55:03;6.30;;;3.33;;
13897;SDS011;7019;50.766;4.474;2024-01-15T08:57:32;5.37;;;2.70;;
13897;SDS011;7019;50.766;4.474;2024-01-15T09:00:01;12.60;;;3.33;;
13897;SDS011;7019;50.766;4.474;2024-01-15T09:02:33;7.13;;;3.50;;
13897;SDS011;7019;50.766;4.474;2024-01-15T09:05:01;5.77;;;2.83;;
13897;SDS011;7019;50.766;4.474;2024-01-15T09:07:29;7.07;;;3.07;;
13897;SDS011;7019;50.766;4.474;2024-01-15T09:09:56;10.03;;;2.57;;
13897;SDS011;7019;50.766;4.474;2024-01-15T09:12:25;9.33;;;2.67;;
13897;SDS011;7019;50.766;4.474;2024-01-15T09:14:52;7.73;;;2.33;;
13897;SDS011;7019;50.766;4.474;2024-01-15T09:17:21;11.53;;;2.10;;
13897;SDS011;7019;50.766;4.474;2024-01-15T09:19:49;10.33;;;2.90;;
13897;SDS011;7019;50.766;4.474;2024-01-15T09:22:16;5.53;;;1.93;;
13897;SDS011;7019;50.766;4.474;2024-01-15T09:24:44;9.60;;;2.67;;
13897;SDS011;7019;50.766;4.474;2024-01-15T09:27:11;8.30;;;2.40;;
13897;SDS011;7019;50.766;4.474;2024-01-15T09:29:39;3.83;;;1.70;;
13897;SDS011;7019;50.766;4.474;2024-01-15T09:32:07;4.83;;;2.60;;
13897;SDS011;7019;50.766;4.474;2024-01-15T09:34:35;3.60;;;2.53;;
13897;SDS011;7019;50.766;4.474;2024-01-15T09:37:03;4.47;;;1.63;;
13897;SDS011;7019;50.766;4.474;2024-01-15T09:39:30;7.13;;;1.87;;
13897;SDS011;7019;50.766;4.474;2024-01-15T09:41:58;4.83;;;2.00;;
13897;SDS011;7019;50.766;4.474;2024-01-15T09:44:25;8.47;;;2.13;;
13897;SDS011;7019;50.766;4.474;2024-01-15T09:46:54;6.77;;;2.10;;
13897;SDS011;7019;50.766;4.474;2024-01-15T09:49:22;6.53;;;1.73;;
13897;SDS011;7019;50.766;4.474;2024-01-15T09:51:51;4.67;;;1.90;;
13897;SDS011;7019;50.766;4.474;2024-01-15T09:54:18;4.67;;;1.67;;
13897;SDS011;7019;50.766;4.474;2024-01-15T09:56:46;4.97;;;1.70;;
13897;SDS011;7019;50.766;4.474;2024-01-15T09:59:14;7.47;;;2.17;;
13897;SDS011;7019;50.766;4.474;2024-01-15T10:01:43;9.53;;;2.10;;
13897;SDS011;7019;50.766;4.474;2024-01-15T10:04:10;7.50;;;1.90;;
13897;SDS011;7019;50.766;4.474;2024-01-15T10:06:38;3.07;;;1.60;;
13897;SDS011;7019;50.766;4.474;2024-01-15T10:09:07;6.13;;;1.73;;
13897;SDS011;7019;50.766;4.474;2024-01-15T10:11:36;6.00;;;1.80;;
13897;SDS011;7019;50.766;4.474;2024-01-15T10:14:04;7.53;;;1.53;;
13897;SDS011;7019;50.766;4.474;2024-01-15T10:16:31;4.43;;;1.60;;
13897;SDS011;7019;50.766;4.474;2024-01-15T10:18:58;4.17;;;1.23;;
13897;SDS011;7019;50.766;4.474;2024-01-15T10:21:26;4.97;;;2.67;;
13897;SDS011;7019;50.766;4.474;2024-01-15T10:23:53;7.33;;;2.13;;
13897;SDS011;7019;50.766;4.474;2024-01-15T10:26:25;8.93;;;1.63;;
13897;SDS011;7019;50.766;4.474;2024-01-15T10:28:53;6.07;;;1.30;;
13897;SDS011;7019;50.766;4.474;2024-01-15T10:31:20;8.63;;;2.00;;
13897;SDS011;7019;50.766;4.474;2024-01-15T10:33:48;3.03;;;1.57;;
13897;SDS011;7019;50.766;4.474;2024-01-15T10:36:15;5.77;;;1.40;;
13897;SDS011;7019;50.766;4.474;2024-01-15T10:38:43;3.70;;;1.10;;
13897;SDS011;7019;50.766;4.474;2024-01-15T10:41:11;5.17;;;1.70;;
13897;SDS011;7019;50.766;4.474;2024-01-15T10:43:39;3.83;;;1.10;;
13897;SDS011;7019;50.766;4.474;2024-01-15T10:46:07;5.33;;;1.80;;
13897;SDS011;7019;50.766;4.474;2024-01-15T10:48:35;6.07;;;1.70;;
13897;SDS011;7019;50.766;4.474;2024-01-15T10:51:03;5.30;;;1.23;;
13897;SDS011;7019;50.766;4.474;2024-01-15T10:53:35;3.97;;;1.30;;
13897;SDS011;7019;50.766;4.474;2024-01-15T10:56:04;5.47;;;1.70;;
13897;SDS011;7019;50.766;4.474;2024-01-15T10:58:32;4.90;;;1.40;;
13897;SDS011;7019;50.766;4.474;2024-01-15T11:01:02;5.07;;;1.20;;
13897;SDS011;7019;50.766;4.474;2024-01-15T11:03:31;7.20;;;1.90;;
13897;SDS011;7019;50.766;4.474;2024-01-15T11:05:58;6.77;;;1.43;;
13897;SDS011;7019;50.766;4.474;2024-01-15T11:08:26;3.77;;;1.47;;
13897;SDS011;7019;50.766;4.474;2024-01-15T11:10:53;6.70;;;1.47;;
13897;SDS011;7019;50.766;4.474;2024-01-15T11:13:23;5.83;;;1.50;;
13897;SDS011;7019;50.766;4.474;2024-01-15T11:16:09;4.33;;;1.33;;
13897;SDS011;7019;50.766;4.474;2024-01-15T11:18:39;2.50;;;1.03;;
13897;SDS011;7019;50.766;4.474;2024-01-15T11:21:19;6.83;;;1.30;;
13897;SDS011;7019;50.766;4.474;2024-01-15T11:23:47;2.87;;;1.07;;
13897;SDS011;7019;50.766;4.474;2024-01-15T11:26:28;4.17;;;1.40;;
13897;SDS011;7019;50.766;4.474;2024-01-15T11:28:56;4.30;;;1.30;;
13897;SDS011;7019;50.766;4.474;2024-01-15T11:31:29;3.53;;;1.50;;
13897;SDS011;7019;50.766;4.474;2024-01-15T11:33:56;2.60;;;0.97;;
13897;SDS011;7019;50.766;4.474;2024-01-15T11:41:49;7.70;;;1.33;;
13897;SDS011;7019;50.766;4.474;2024-01-15T11:44:17;5.60;;;1.33;;
13897;SDS011;7019;50.766;4.474;2024-01-15T11:46:53;6.87;;;1.10;;
13897;SDS011;7019;50.766;4.474;2024-01-15T11:49:26;7.83;;;1.20;;
13897;SDS011;7019;50.766;4.474;2024-01-15T11:52:00;4.27;;;0.90;;
13897;SDS011;7019;50.766;4.474;2024-01-15T11:54:28;3.30;;;0.90;;
13897;SDS011;7019;50.766;4.474;2024-01-15T11:56:59;9.83;;;1.07;;
13897;SDS011;7019;50.766;4.474;2024-01-15T11:59:26;9.43;;;1.60;;
13897;SDS011;7019;50.766;4.474;2024-01-15T12:01:55;5.60;;;1.00;;
13897;SDS011;7019;50.766;4.474;2024-01-15T12:04:23;2.50;;;0.87;;
13897;SDS011;7019;50.766;4.474;2024-01-15T12:06:52;5.70;;;1.03;;
13897;SDS011;7019;50.766;4.474;2024-01-15T12:09:19;4.93;;;1.50;;
13897;SDS011;7019;50.766;4.474;2024-01-15T12:11:51;7.57;;;1.20;;
13897;SDS011;7019;50.766;4.474;2024-01-15T12:14:21;4.40;;;0.80;;
13897;SDS011;7019;50.766;4.474;2024-01-15T12:16:49;3.30;;;1.23;;
13897;SDS011;7019;50.766;4.474;2024-01-15T12:19:18;5.53;;;0.90;;
13897;SDS011;7019;50.766;4.474;2024-01-15T12:21:45;3.33;;;0.90;;
13897;SDS011;7019;50.766;4.474;2024-01-15T12:24:13;6.90;;;1.13;;
13897;SDS011;7019;50.766;4.474;2024-01-15T12:26:40;3.53;;;0.67;;
13897;SDS011;7019;50.766;4.474;2024-01-15T12:29:08;5.30;;;0.77;;
13897;SDS011;7019;50.766;4.474;2024-01-15T12:31:35;10.90;;;1.20;;
13897;SDS011;7019;50.766;4.474;2024-01-15T12:34:02;2.47;;;0.70;;
13897;SDS011;7019;50.766;4.474;2024-01-15T12:36:31;6.37;;;1.13;;
13897;SDS011;7019;50.766;4.474;2024-01-15T12:38:59;6.40;;;1.10;;
13897;SDS011;7019;50.766;4.474;2024-01-15T12:41:26;3.70;;;1.00;;
13897;SDS011;7019;50.766;4.474;2024-01-15T12:43:54;1.90;;;0.60;;
13897;SDS011;7019;50.766;4.474;2024-01-15T12:46:21;4.97;;;0.83;;
13897;SDS011;7019;50.766;4.474;2024-01-15T12:48:50;3.60;;;0.70;;
13897;SDS011;7019;50.766;4.474;2024-01-15T12:51:17;2.77;;;0.80;;
13897;SDS011;7019;50.766;4.474;2024-01-15T12:53:46;3.57;;;0.67;;
13897;SDS011;7019;50.766;4.474;2024-01-15T12:56:14;6.10;;;1.30;;
13897;SDS011;7019;50.766;4.474;2024-01-15T12:58:41;5.27;;;1.33;;
13897;SDS011;7019;50.766;4.474;2024-01-15T13:01:08;4.93;;;0.90;;
13897;SDS011;7019;50.766;4.474;2024-01-15T13:03:36;7.33;;;0.87;;
13897;SDS011;7019;50.766;4.474;2024-01-15T13:06:03;2.47;;;1.20;;
13897;SDS011;7019;50.766;4.474;2024-01-15T13:08:31;4.97;;;1.00;;
13897;SDS011;7019;50.766;4.474;2024-01-15T13:11:00;3.50;;;1.23;;
13897;SDS011;7019;50.766;4.474;2024-01-15T13:13:27;2.50;;;0.63;;
13897;SDS011;7019;50.766;4.474;2024-01-15T13:15:55;3.53;;;1.33;;
13897;SDS011;7019;50.766;4.474;2024-01-15T13:18:22;2.70;;;1.17;;
13897;SDS011;7019;50.766;4.474;2024-01-15T13:20:50;2.77;;;1.20;;
13897;SDS011;7019;50.766;4.474;2024-01-15T13:23:17;5.17;;;0.70;;
13897;SDS011;7019;50.766;4.474;2024-01-15T13:25:45;4.77;;;1.40;;
13897;SDS011;7019;50.766;4.474;2024-01-15T13:28:14;5.47;;;0.67;;
13897;SDS011;7019;50.766;4.474;2024-01-15T13:30:41;9.53;;;1.30;;
13897;SDS011;7019;50.766;4.474;2024-01-15T13:33:09;2.47;;;1.10;;
13897;SDS011;7019;50.766;4.474;2024-01-15T13:35:36;2.43;;;0.90;;
13897;SDS011;7019;50.766;4.474;2024-01-15T13:38:04;5.67;;;1.13;;
13897;SDS011;7019;50.766;4.474;2024-01-15T13:40:31;3.07;;;1.20;;
13897;SDS011;7019;50.766;4.474;2024-01-15T13:42:58;2.87;;;0.80;;
13897;SDS011;7019;50.766;4.474;2024-01-15T13:45:27;1.50;;;0.93;;
13897;SDS011;7019;50.766;4.474;2024-01-15T13:47:55;4.87;;;1.30;;
13897;SDS011;7019;50.766;4.474;2024-01-15T13:50:22;4.13;;;1.23;;
13897;SDS011;7019;50.766;4.474;2024-01-15T13:52:49;3.23;;;0.80;;
13897;SDS011;7019;50.766;4.474;2024-01-15T13:55:17;4.13;;;1.00;;
13897;SDS011;7019;50.766;4.474;2024-01-15T13:57:45;10.40;;;1.10;;
13897;SDS011;7019;50.766;4.474;2024-01-15T14:00:13;1.07;;;0.70;;
13897;SDS011;7019;50.766;4.474;2024-01-15T14:02:45;4.03;;;0.70;;
13897;SDS011;7019;50.766;4.474;2024-01-15T14:05:12;4.80;;;1.60;;
13897;SDS011;7019;50.766;4.474;2024-01-15T14:07:39;3.23;;;1.10;;
13897;SDS011;7019;50.766;4.474;2024-01-15T14:10:08;3.83;;;0.93;;
13897;SDS011;7019;50.766;4.474;2024-01-15T14:12:36;3.70;;;1.00;;
13897;SDS011;7019;50.766;4.474;2024-01-15T14:15:03;4.23;;;0.80;;
13897;SDS011;7019;50.766;4.474;2024-01-15T14:17:31;6.67;;;1.30;;
13897;SDS011;7019;50.766;4.474;2024-01-15T14:20:00;10.10;;;1.03;;
13897;SDS011;7019;50.766;4.474;2024-01-15T14:22:30;4.47;;;0.87;;
13897;SDS011;7019;50.766;4.474;2024-01-15T14:24:57;3.57;;;1.10;;
13897;SDS011;7019;50.766;4.474;2024-01-15T14:27:24;6.03;;;1.20;;
13897;SDS011;7019;50.766;4.474;2024-01-15T14:29:51;6.20;;;2.63;;
13897;SDS011;7019;50.766;4.474;2024-01-15T14:32:19;3.20;;;0.93;;
13897;SDS011;7019;50.766;4.474;2024-01-15T14:34:46;5.97;;;1.27;;
13897;SDS011;7019;50.766;4.474;2024-01-15T14:37:15;5.43;;;2.23;;
13897;SDS011;7019;50.766;4.474;2024-01-15T14:39:43;7.40;;;2.50;;
13897;SDS011;7019;50.766;4.474;2024-01-15T14:42:10;7.23;;;2.90;;
13897;SDS011;7019;50.766;4.474;2024-01-15T14:44:38;2.47;;;1.47;;
13897;SDS011;7019;50.766;4.474;2024-01-15T14:47:06;5.93;;;1.50;;
13897;SDS011;7019;50.766;4.474;2024-01-15T14:49:34;6.43;;;1.20;;
13897;SDS011;7019;50.766;4.474;2024-01-15T14:52:01;7.43;;;1.10;;
13897;SDS011;7019;50.766;4.474;2024-01-15T14:54:30;3.07;;;1.17;;
13897;SDS011;7019;50.766;4.474;2024-01-15T14:56:58;1.87;;;0.63;;
13897;SDS011;7019;50.766;4.474;2024-01-15T14:59:25;3.97;;;0.97;;